Time;durP1;ratioP1;P1;durP2;ratioP2;P2;SDS_P1;SDS_P2;PMS_P1;PMS_P2;Temp;Humidity;BMP_temperature;BMP_pressure;BME280_temperature;BME280_humidity;BME280_pressure;Samples;Min_cycle;Max_cycle;Signal;HPM_P1;HPM_P2
2024/01/24 00:00:50;;;;;;;17.55;8.23;;;19.20;38.20;;;;;;8364508;28;20037;-50
2024/01/24 00:04:51;;;;;;;19.58;7.70;;;19.20;38.20;;;;;;8364520;28;20036;-50
2024/01/24 00:08:53;;;;;;;23.35;7.90;;;19.10;39.10;;;;;;8364168;28;20068;-49
2024/01/24 00:12:54;;;;;;;;;;;19.00;39.70;;;;;;8364749;28;20037;-50
2024/01/24 00:16:55;;;;;;;;;;;18.90;39.30;;;;;;8364647;28;19909;-50
2024/01/24 00:20:55;;;;;;;16.27;6.63;;;19.00;39.00;;;;;;8362328;28;20027;-51
2024/01/24 00:24:56;;;;;;;17.10;7.20;;;19.00;38.80;;;;;;8362863;28;20056;-53
2024/01/24 00:28:57;;;;;;;24.80;7.90;;;19.00;38.50;;;;;;8363819;28;20150;-52
2024/01/24 00:32:59;;;;;;;21.65;7.20;;;19.00;38.30;;;;;;8363360;28;20112;-53
2024/01/24 00:37:00;;;;;;;20.33;7.47;;;19.10;38.20;;;;;;8363628;28;20063;-51
2024/01/24 00:41:01;;;;;;;17.48;6.22;;;19.10;38.20;;;;;;8363781;28;20040;-51
2024/01/24 00:45:01;;;;;;;14.20;6.22;;;19.00;38.00;;;;;;8363098;28;20045;-52
2024/01/24 00:49:09;;;;;;;16.50;5.90;;;19.00;38.00;;;;;;8363127;28;20033;-53
2024/01/24 00:53:17;;;;;;;16.95;6.15;;;19.00;37.90;;;;;;8362868;28;20033;-51
2024/01/24 00:57:17;;;;;;;17.55;5.53;;;18.90;39.00;;;;;;8363203;28;20032;-50
2024/01/24 01:01:19;;;;;;;15.57;6.30;;;18.80;39.50;;;;;;8362630;28;20486;-53
2024/01/24 01:05:20;;;;;;;14.45;5.88;;;18.80;39.10;;;;;;8361357;28;20291;-52
2024/01/24 01:09:21;;;;;;;16.70;6.05;;;18.90;38.80;;;;;;8362224;28;20065;-51
2024/01/24 01:13:22;;;;;;;13.13;5.53;;;18.90;38.50;;;;;;8362090;28;20088;-53
2024/01/24 01:17:23;;;;;;;;;;;18.90;38.30;;;;;;8362704;28;20029;-51
2024/01/24 01:21:23;;;;;;;13.37;5.10;;;18.90;38.20;;;;;;8361934;28;19916;-53
2024/01/24 01:25:24;;;;;;;13.25;5.20;;;18.90;38.10;;;;;;8362023;28;20490;-51
2024/01/24 01:29:25;;;;;;;12.95;5.50;;;18.90;37.90;;;;;;8361722;28;20434;-50
2024/01/24 01:33:26;;;;;;;12.95;4.85;;;18.90;37.80;;;;;;8361148;28;20040;-50
2024/01/24 01:37:26;;;;;;;15.02;5.28;;;18.90;37.80;;;;;;8361656;28;20025;-51
2024/01/24 01:41:27;;;;;;;14.38;5.38;;;19.00;37.80;;;;;;8361549;28;20505;-52
2024/01/24 01:45:28;;;;;;;12.57;4.90;;;18.80;38.90;;;;;;8361139;28;20036;-51
2024/01/24 01:49:28;;;;;;;16.38;5.30;;;18.70;39.40;;;;;;8359701;28;20546;-52
2024/01/24 01:53:30;;;;;;;11.52;5.05;;;18.70;39.00;;;;;;8361017;28;20033;-51
2024/01/24 01:57:32;;;;;;;11.15;4.10;;;18.80;38.70;;;;;;8360844;28;20029;-51
2024/01/24 02:01:33;;;;;;;11.18;4.28;;;18.80;38.40;;;;;;8361049;28;20505;-52
2024/01/24 02:05:34;;;;;;;15.50;5.07;;;18.80;38.20;;;;;;8360524;28;20413;-51
2024/01/24 02:09:35;;;;;;;12.02;4.93;;;18.80;38.10;;;;;;8360245;28;20585;-53
2024/01/24 02:13:35;;;;;;;11.43;4.32;;;18.90;38.00;;;;;;8359153;28;20480;-50
2024/01/24 02:17:36;;;;;;;10.30;4.00;;;18.90;37.80;;;;;;8360235;28;20487;-51
2024/01/24 02:21:38;;;;;;;9.45;3.97;;;18.90;37.70;;;;;;8360150;28;20109;-52
2024/01/24 02:25:39;;;;;;;10.07;3.92;;;18.90;37.70;;;;;;8360263;28;20483;-52
2024/01/24 02:29:39;;;;;;;10.57;4.63;;;18.90;37.70;;;;;;8359874;28;20064;-53
2024/01/24 02:33:40;;;;;;;11.13;4.22;;;18.80;38.80;;;;;;8359983;28;20352;-52
2024/01/24 02:37:41;;;;;;;11.27;4.18;;;18.60;39.20;;;;;;8359944;28;20129;-51
2024/01/24 02:41:41;;;;;;;11.63;4.35;;;18.60;38.80;;;;;;8359536;28;20170;-51
2024/01/24 02:45:42;;;;;;;9.48;4.03;;;18.70;38.50;;;;;;8359052;28;20033;-51
2024/01/24 02:49:42;;;;;;;10.48;4.15;;;18.80;38.30;;;;;;8359435;28;20550;-50
2024/01/24 02:53:43;;;;;;;12.75;3.80;;;18.80;38.10;;;;;;8358299;28;20116;-50
2024/01/24 02:57:44;;;;;;;9.10;3.83;;;18.80;37.90;;;;;;8359988;28;20036;-50
2024/01/24 03:01:45;;;;;;;7.95;3.75;;;18.80;37.70;;;;;;8359471;28;20037;-49
2024/01/24 03:05:46;;;;;;;10.85;4.07;;;18.80;37.70;;;;;;8359350;28;20478;-50
2024/01/24 03:09:47;;;;;;;7.57;3.22;;;18.80;37.60;;;;;;8359093;28;20068;-49
2024/01/24 03:13:47;;;;;;;9.23;4.15;;;18.90;37.60;;;;;;8359001;28;20060;-51
2024/01/24 03:17:48;;;;;;;7.35;3.50;;;18.90;37.70;;;;;;8359313;28;20025;-50
2024/01/24 03:21:49;;;;;;;7.05;3.53;;;18.70;39.30;;;;;;8359194;28;20082;-49
2024/01/24 03:25:49;;;;;;;9.05;4.20;;;18.60;39.00;;;;;;8359178;28;20083;-49
2024/01/24 03:29:50;;;;;;;7.78;3.13;;;18.60;38.60;;;;;;8359521;28;20068;-49
2024/01/24 03:33:51;;;;;;;8.20;2.95;;;18.70;38.30;;;;;;8359021;28;20372;-49
2024/01/24 03:37:52;;;;;;;12.25;3.70;;;18.70;38.10;;;;;;8358731;28;20032;-50
2024/01/24 03:41:52;;;;;;;10.30;3.75;;;18.80;38.00;;;;;;8358957;28;20478;-50
2024/01/24 03:45:53;;;;;;;7.55;3.17;;;18.80;37.80;;;;;;8358807;28;20036;-49
2024/01/24 03:49:54;;;;;;;7.07;3.25;;;18.80;37.70;;;;;;8358520;28;20036;-50
2024/01/24 03:53:54;;;;;;;9.82;3.75;;;18.80;37.60;;;;;;8358883;28;20437;-49
2024/01/24 03:57:56;;;;;;;7.85;3.13;;;18.80;37.50;;;;;;8361969;28;20048;-50
2024/01/24 04:01:57;;;;;;;6.82;3.13;;;18.80;37.50;;;;;;8364680;28;20029;-50
2024/01/24 04:05:57;;;;;;;7.90;3.50;;;18.80;37.90;;;;;;8364471;28;20041;-51
2024/01/24 04:10:01;;;;;;;8.15;3.38;;;18.70;38.70;;;;;;8364222;28;20079;-51
2024/01/24 04:14:04;;;;;;;6.82;2.78;;;18.60;38.90;;;;;;8363985;28;20291;-52
2024/01/24 04:18:05;;;;;;;7.50;3.10;;;18.60;38.60;;;;;;8364150;28;20061;-51
2024/01/24 04:22:07;;;;;;;5.97;2.85;;;18.70;38.20;;;;;;8364449;28;20036;-50
2024/01/24 04:26:08;;;;;;;6.18;3.05;;;18.70;38.00;;;;;;8363937;28;20037;-53
2024/01/24 04:30:09;;;;;;;5.90;2.65;;;18.80;37.80;;;;;;8363667;28;20040;-50
2024/01/24 04:34:10;;;;;;;5.78;2.50;;;18.80;37.70;;;;;;8363706;28;20040;-52
2024/01/24 04:38:10;;;;;;;5.57;2.72;;;18.80;38.10;;;;;;8363305;28;20037;-52
2024/01/24 04:42:11;;;;;;;5.28;2.60;;;18.80;37.40;;;;;;8363366;28;20037;-52
2024/01/24 04:46:14;;;;;;;7.20;2.80;;;18.80;37.40;;;;;;8363153;28;20037;-52
2024/01/24 04:50:14;;;;;;;6.53;3.55;;;18.80;37.30;;;;;;8362857;28;20078;-50
2024/01/24 04:54:15;;;;;;;7.45;2.92;;;18.80;37.90;;;;;;8363151;28;20033;-51
2024/01/24 04:58:16;;;;;;;5.45;2.40;;;18.60;38.60;;;;;;8362554;28;20048;-52
2024/01/24 05:02:17;;;;;;;3.33;1.83;;;18.50;38.70;;;;;;8363281;28;20116;-51
2024/01/24 05:06:17;;;;;;;6.82;3.10;;;18.60;38.40;;;;;;8362379;28;20048;-50
2024/01/24 05:10:18;;;;;;;5.35;2.33;;;18.70;38.10;;;;;;8361499;28;20530;-52
2024/01/24 05:14:19;;;;;;;4.65;2.50;;;18.70;37.80;;;;;;8360967;28;20025;-52
2024/01/24 05:18:20;;;;;;;4.30;2.20;;;18.70;37.60;;;;;;8362230;28;20025;-51
2024/01/24 05:22:21;;;;;;;5.93;2.75;;;18.80;37.50;;;;;;8360971;28;20033;-50
2024/01/24 05:26:22;;;;;;;4.38;2.03;;;18.80;37.30;;;;;;8361657;28;20064;-51
2024/01/24 05:30:23;;;;;;;6.20;2.42;;;18.90;37.20;;;;;;8361863;28;20033;-54
2024/01/24 05:34:24;;;;;;;3.55;1.88;;;18.90;37.10;;;;;;8361616;28;20520;-52
2024/01/24 05:38:25;;;;;;;4.32;2.25;;;18.90;37.00;;;;;;8361518;28;20036;-50
2024/01/24 05:42:25;;;;;;;3.75;2.38;;;18.90;37.60;;;;;;8360162;28;20376;-52
2024/01/24 05:46:26;;;;;;;5.78;2.42;;;18.80;38.30;;;;;;8361225;28;20056;-52
2024/01/24 05:50:27;;;;;;;4.22;2.25;;;18.80;38.20;;;;;;8361190;28;20064;-51
2024/01/24 05:54:27;;;;;;;3.92;2.47;;;18.80;38.00;;;;;;8361053;28;20479;-51
2024/01/24 05:58:28;;;;;;;5.47;2.27;;;18.80;37.60;;;;;;8360706;28;20033;-52
2024/01/24 06:02:29;;;;;;;5.10;2.30;;;18.90;37.50;;;;;;8361824;28;20290;-51
2024/01/24 06:06:29;;;;;;;4.85;2.00;;;18.90;37.30;;;;;;8360661;28;20295;-52
2024/01/24 06:10:30;;;;;;;3.65;1.95;;;18.90;37.60;;;;;;8360584;28;20037;-51
2024/01/24 06:14:31;;;;;;;3.28;1.95;;;19.00;37.00;;;;;;8360384;28;20037;-51
2024/01/24 06:18:31;;;;;;;3.05;1.73;;;19.00;36.90;;;;;;8359377;28;20029;-50
2024/01/24 06:22:32;;;;;;;5.15;2.60;;;19.00;36.80;;;;;;8360413;28;20037;-50
2024/01/24 06:26:33;;;;;;;4.18;2.10;;;19.00;36.70;;;;;;8360311;28;20470;-50
2024/01/24 06:30:34;;;;;;;6.03;2.08;;;19.00;37.50;;;;;;8359994;28;20036;-50
2024/01/24 06:34:34;;;;;;;4.45;1.80;;;18.90;38.10;;;;;;8360050;28;20033;-51
2024/01/24 06:38:35;;;;;;;3.60;2.03;;;18.80;38.00;;;;;;8359836;28;20486;-51
2024/01/24 06:42:37;;;;;;;4.30;1.53;;;18.90;37.70;;;;;;8359749;28;20091;-53
2024/01/24 06:46:42;;;;;;;2.83;2.00;;;18.90;37.50;;;;;;8360020;28;20283;-49
2024/01/24 06:50:43;;;;;;;3.72;1.83;;;18.90;37.20;;;;;;8359653;28;20037;-50
2024/01/24 06:54:43;;;;;;;4.10;1.58;;;18.90;37.10;;;;;;8359757;28;20040;-50
2024/01/24 06:58:44;;;;;;;3.58;1.80;;;18.90;36.90;;;;;;8359381;28;20044;-50
2024/01/24 07:02:45;;;;;;;3.03;1.85;;;19.00;36.80;;;;;;8359793;28;20437;-51
2024/01/24 07:06:45;;;;;;;4.43;1.75;;;19.00;36.80;;;;;;8359185;28;20064;-49
2024/01/24 07:10:46;;;;;;;3.53;1.67;;;19.00;36.70;;;;;;8359436;28;20025;-50
2024/01/24 07:14:48;;;;;;;3.40;1.42;;;19.00;36.60;;;;;;8359185;28;20036;-53
2024/01/24 07:18:48;;;;;;;3.40;1.52;;;18.90;37.60;;;;;;8359104;28;20063;-50
2024/01/24 07:22:49;;;;;;;3.05;1.60;;;18.80;38.00;;;;;;8359326;28;20090;-50
2024/01/24 07:26:50;;;;;;;4.30;1.65;;;18.80;37.90;;;;;;8357681;28;20537;-50
2024/01/24 07:30:51;;;;;;;3.40;1.80;;;18.90;37.60;;;;;;8359415;28;20520;-52
2024/01/24 07:34:51;;;;;;;3.75;1.48;;;18.90;37.40;;;;;;8365553;28;20033;-52
2024/01/24 07:38:53;;;;;;;2.92;1.65;;;18.90;37.20;;;;;;8365218;28;20026;-52
2024/01/24 07:42:53;;;;;;;2.50;1.42;;;19.00;37.10;;;;;;8363863;28;20033;-52
2024/01/24 07:46:54;;;;;;;2.25;1.25;;;19.00;36.90;;;;;;8365125;28;20124;-52
2024/01/24 07:50:55;;;;;;;2.80;1.27;;;19.00;36.90;;;;;;8364806;28;20029;-53
2024/01/24 07:54:55;;;;;;;2.33;1.40;;;19.00;36.70;;;;;;8364685;28;20048;-53
2024/01/24 07:58:56;;;;;;;3.10;1.10;;;19.00;36.60;;;;;;8364544;28;20029;-51
2024/01/24 08:02:58;;;;;;;3.00;1.40;;;19.00;36.60;;;;;;8364603;28;20483;-51
2024/01/24 08:06:58;;;;;;;1.92;1.10;;;19.00;37.50;;;;;;8363027;28;20099;-51
2024/01/24 08:11:00;;;;;;;2.17;1.33;;;18.90;38.10;;;;;;8364047;28;20065;-50
2024/01/24 08:15:01;;;;;;;2.50;1.35;;;18.80;37.90;;;;;;8364143;28;20036;-52
2024/01/24 08:19:01;;;;;;;2.80;1.27;;;18.80;37.60;;;;;;8364037;28;20029;-51
2024/01/24 08:23:02;;;;;;;2.42;1.10;;;18.90;37.40;;;;;;8363755;28;20291;-51
2024/01/24 08:27:03;;;;;;;3.70;1.50;;;18.90;37.20;;;;;;8363628;28;20435;-54
2024/01/24 08:31:04;;;;;;;2.88;1.40;;;19.00;37.10;;;;;;8363597;28;20037;-50
2024/01/24 08:35:05;;;;;;;2.17;1.38;;;19.00;36.90;;;;;;8362846;28;20044;-53
2024/01/24 08:39:06;;;;;;;3.28;1.20;;;19.00;36.80;;;;;;8363235;28;20033;-52
2024/01/24 08:43:06;;;;;;;2.28;1.27;;;19.00;36.70;;;;;;8362107;28;20037;-51
2024/01/24 08:47:07;;;;;;;2.35;1.52;;;19.00;36.60;;;;;;8363499;28;20039;-49
2024/01/24 08:51:08;;;;;;;2.33;1.27;;;19.00;36.60;;;;;;8362796;28;20387;-51
2024/01/24 08:55:08;;;;;;;1.92;1.20;;;18.90;37.60;;;;;;8362810;28;20025;-49
2024/01/24 08:59:09;;;;;;;2.03;1.27;;;18.90;38.10;;;;;;8362873;28;20116;-50
2024/01/24 09:03:11;;;;;;;3.10;1.23;;;18.80;37.80;;;;;;8362672;28;20044;-52
2024/01/24 09:07:14;;;;;;;2.75;1.30;;;18.80;37.50;;;;;;8362375;28;20063;-49
2024/01/24 09:11:14;;;;;;;2.45;1.00;;;18.90;37.30;;;;;;8362481;28;20440;-50
2024/01/24 09:15:15;;;;;;;2.53;1.33;;;18.90;37.10;;;;;;8362150;28;20091;-49
2024/01/24 09:19:16;;;;;;;1.75;1.00;;;19.00;37.00;;;;;;8362388;28;20279;-50
2024/01/24 09:23:16;;;;;;;1.30;1.00;;;19.00;36.80;;;;;;8362465;28;20033;-50
2024/01/24 09:27:17;;;;;;;1.40;0.82;;;19.00;36.60;;;;;;8361916;28;20060;-50
2024/01/24 09:31:18;;;;;;;2.15;0.90;;;19.00;36.60;;;;;;8361670;28;20045;-51
2024/01/24 09:35:18;;;;;;;1.13;0.90;;;19.00;36.50;;;;;;8361712;28;20033;-50
2024/01/24 09:39:19;;;;;;;2.45;1.30;;;19.00;36.50;;;;;;8361452;28;20449;-51
2024/01/24 09:43:23;;;;;;;1.17;0.90;;;18.90;37.60;;;;;;8360028;28;20664;-51
2024/01/24 09:47:24;;;;;;;2.08;1.05;;;18.80;38.10;;;;;;8361272;28;20329;-50
2024/01/24 09:51:25;;;;;;;1.90;0.90;;;18.80;37.80;;;;;;8361225;28;20483;-50
2024/01/24 09:55:27;;;;;;;1.65;1.02;;;18.80;37.60;;;;;;8360689;28;20395;-50
2024/01/24 09:59:28;;;;;;;1.92;0.90;;;18.90;37.30;;;;;;8360749;28;20029;-51
2024/01/24 10:03:31;;;;;;;1.92;1.00;;;18.90;37.10;;;;;;8360769;28;20087;-50
2024/01/24 10:07:32;;;;;;;1.52;1.02;;;18.90;36.90;;;;;;8360293;28;20049;-50
2024/01/24 10:11:33;;;;;;;3.20;1.33;;;19.00;36.80;;;;;;8360819;28;20139;-51
2024/01/24 10:15:35;;;;;;;1.48;0.90;;;19.00;36.70;;;;;;8360872;28;20033;-50
2024/01/24 10:19:36;;;;;;;1.95;1.02;;;19.00;36.60;;;;;;8360458;28;20044;-51
2024/01/24 10:23:37;;;;;;;1.40;0.80;;;19.00;36.50;;;;;;8360321;28;20167;-51
2024/01/24 10:27:39;;;;;;;1.00;0.85;;;19.00;36.60;;;;;;8360229;28;20727;-51
2024/01/24 10:31:39;;;;;;;1.33;0.77;;;18.90;37.70;;;;;;8360088;28;20394;-50
2024/01/24 10:35:41;;;;;;;1.23;0.90;;;18.80;38.00;;;;;;8359962;28;20307;-53
2024/01/24 10:39:42;;;;;;;1.58;0.75;;;18.80;37.70;;;;;;8359923;28;20044;-53
2024/01/24 10:43:50;;;;;;;1.27;0.90;;;18.80;37.40;;;;;;8359750;28;20044;-51
2024/01/24 10:47:51;;;;;;;0.75;0.63;;;18.90;37.20;;;;;;8360268;28;20025;-51
2024/01/24 10:51:52;;;;;;;;;;;18.90;36.90;;;;;;8360246;28;20111;-52
2024/01/24 10:55:57;;;;;;;1.30;0.80;;;18.90;36.80;;;;;;8359431;28;19920;-54
2024/01/24 11:04:57;;;;;;;1.63;1.05;;;19.00;36.60;;;;;;8359620;28;20074;-48
2024/01/24 11:09:24;;;;;;;1.35;0.60;;;19.00;36.50;;;;;;8363368;28;20077;-48
2024/01/24 11:13:24;;;;;;;1.42;0.80;;;19.10;36.50;;;;;;8365590;28;20092;-47
2024/01/24 11:17:25;;;;;;;0.88;0.60;;;19.00;37.30;;;;;;8365948;28;20033;-47
2024/01/24 11:21:30;;;;;;;0.88;0.70;;;18.90;38.00;;;;;;8366093;28;20037;-50
2024/01/24 11:25:40;;;;;;;0.80;0.65;;;18.80;37.90;;;;;;8366606;28;20075;-48
2024/01/24 11:29:40;;;;;;;1.33;0.70;;;18.90;37.60;;;;;;8332682;28;20026;-48
2024/01/24 11:34:07;;;;;;;1.02;0.65;;;18.90;37.30;;;;;;8332475;28;20041;-48
2024/01/24 11:38:21;;;;;;;1.02;0.70;;;18.90;37.10;;;;;;8332457;28;20022;-49
2024/01/24 11:42:28;;;;;;;1.33;0.82;;;18.90;36.90;;;;;;8332581;28;20529;-48
2024/01/24 11:46:29;;;;;;;1.50;1.00;;;19.00;36.80;;;;;;8332140;28;20087;-47
2024/01/24 11:50:30;;;;;;;1.17;0.75;;;19.00;36.70;;;;;;8331956;28;20037;-49
2024/01/24 11:54:30;;;;;;;1.13;0.70;;;19.00;36.70;;;;;;8332717;28;20029;-47
2024/01/24 11:58:31;;;;;;;0.98;0.82;;;19.00;36.60;;;;;;8354181;28;20025;-48
2024/01/24 12:02:33;;;;;;;0.70;0.60;;;19.00;36.60;;;;;;8364599;28;20552;-48
2024/01/24 12:06:35;;;;;;;0.93;0.50;;;18.90;37.60;;;;;;8364491;28;20053;-49
2024/01/24 12:10:39;;;;;;;1.25;0.82;;;18.80;38.10;;;;;;8364461;28;20033;-49
2024/01/24 12:14:40;;;;;;;0.77;0.55;;;18.80;37.80;;;;;;8364775;28;20036;-49
2024/01/24 12:18:41;;;;;;;0.95;0.52;;;18.80;37.50;;;;;;8363932;28;20428;-51
2024/01/24 12:22:42;;;;;;;1.35;0.68;;;18.90;37.20;;;;;;8364226;28;20110;-49
2024/01/24 12:26:43;;;;;;;;;;;18.90;37.00;;;;;;8364360;28;20036;-49
2024/01/24 12:30:46;;;;;;;2.17;0.70;;;18.90;36.80;;;;;;8363845;28;19913;-49
2024/01/24 12:34:47;;;;;;;1.23;0.80;;;18.90;36.70;;;;;;8363781;28;20036;-49
2024/01/24 12:38:50;;;;;;;1.45;0.60;;;19.00;36.70;;;;;;8363505;28;20036;-50
2024/01/24 12:42:51;;;;;;;0.60;0.60;;;19.00;36.60;;;;;;8363616;28;20040;-49
2024/01/24 12:46:56;;;;;;;0.65;0.50;;;19.00;36.60;;;;;;8363646;28;20041;-49
2024/01/24 12:50:57;;;;;;;1.95;0.63;;;19.00;36.50;;;;;;8363078;28;20455;-49
2024/01/24 12:54:58;;;;;;;1.00;0.70;;;18.90;37.80;;;;;;8362237;28;20033;-52
2024/01/24 12:58:59;;;;;;;0.45;0.45;;;18.80;38.10;;;;;;8361403;28;20035;-49
2024/01/24 13:02:59;;;;;;;0.50;0.50;;;18.80;37.80;;;;;;8361502;28;20036;-49
2024/01/24 13:07:00;;;;;;;0.70;0.60;;;18.80;37.40;;;;;;8362665;28;20107;-49
2024/01/24 13:11:01;;;;;;;0.98;0.60;;;18.90;37.20;;;;;;8362495;28;20410;-49
2024/01/24 13:15:04;;;;;;;0.50;0.50;;;18.90;37.00;;;;;;8362620;28;20025;-49
2024/01/24 13:19:05;;;;;;;0.45;0.45;;;19.00;36.90;;;;;;8362374;28;20114;-49
2024/01/24 13:23:06;;;;;;;0.93;0.70;;;19.00;36.70;;;;;;8361020;28;20033;-51
2024/01/24 13:27:07;;;;;;;0.50;0.45;;;19.00;36.60;;;;;;8362334;28;20067;-53
2024/01/24 13:31:07;;;;;;;0.60;0.60;;;19.00;36.50;;;;;;8361312;28;20036;-50
2024/01/24 13:35:08;;;;;;;0.77;0.50;;;19.00;36.40;;;;;;8361673;28;20082;-50
2024/01/24 13:39:12;;;;;;;0.70;0.47;;;19.10;36.50;;;;;;8361640;28;20025;-50
2024/01/24 13:43:13;;;;;;;0.70;0.50;;;18.90;37.70;;;;;;8361566;28;20037;-49
2024/01/24 13:47:13;;;;;;;0.60;0.55;;;18.80;37.90;;;;;;8361556;28;20045;-52
2024/01/24 13:51:14;;;;;;;0.40;0.40;;;18.80;37.60;;;;;;8361059;28;20033;-50
2024/01/24 13:55:15;;;;;;;0.77;0.50;;;18.80;37.40;;;;;;8361233;28;20021;-53
2024/01/24 13:59:15;;;;;;;0.60;0.60;;;18.90;37.10;;;;;;8360908;28;20063;-53
2024/01/24 14:03:16;;;;;;;0.63;0.50;;;18.90;37.00;;;;;;8361071;28;20032;-51
2024/01/24 14:07:17;;;;;;;0.73;0.60;;;18.90;36.80;;;;;;8360656;28;20130;-52
2024/01/24 14:11:18;;;;;;;0.85;0.50;;;19.00;36.80;;;;;;8360536;28;20032;-51
2024/01/24 14:15:19;;;;;;;1.80;0.63;;;19.00;37.30;;;;;;8360607;28;20047;-50
2024/01/24 14:19:21;;;;;;;0.95;0.40;;;19.00;37.30;;;;;;8354918;28;20033;-54
2024/01/24 14:23:22;;;;;;;0.70;0.63;;;19.00;37.60;;;;;;8348358;28;20487;-54
2024/01/24 14:27:26;;;;;;;2.13;0.75;;;19.10;38.30;;;;;;8332115;28;20446;-53
2024/01/24 14:31:26;;;;;;;0.88;0.68;;;19.00;39.30;;;;;;8327075;28;20034;-55
2024/01/24 14:35:30;;;;;;;0.90;0.50;;;18.90;39.50;;;;;;8332436;28;20032;-50
2024/01/24 14:39:31;;;;;;;0.57;0.50;;;19.00;39.30;;;;;;8359976;28;20040;-53
2024/01/24 14:43:31;;;;;;;1.05;0.50;;;19.00;39.00;;;;;;8358932;28;20029;-53
2024/01/24 14:47:32;;;;;;;0.93;0.50;;;19.10;38.90;;;;;;8360446;28;20116;-51
2024/01/24 14:51:33;;;;;;;1.10;0.70;;;19.10;38.80;;;;;;8358647;28;20033;-49
2024/01/24 14:55:33;;;;;;;0.30;0.30;;;19.10;38.60;;;;;;8328806;28;20061;-50
2024/01/24 14:59:34;;;;;;;0.80;0.50;;;19.10;38.60;;;;;;8360273;28;20427;-50
2024/01/24 15:03:35;;;;;;;0.65;0.50;;;19.20;38.50;;;;;;8359580;28;20051;-51
2024/01/24 15:07:36;;;;;;;;;;;19.20;38.40;;;;;;8358559;28;20530;-54
2024/01/24 15:11:37;;;;;;;0.70;0.40;;;19.20;38.50;;;;;;8359518;28;20386;-54
2024/01/24 15:15:37;;;;;;;0.47;0.32;;;19.20;38.90;;;;;;8359333;28;20491;-54
2024/01/24 15:19:45;;;;;;;0.60;0.43;;;19.00;39.60;;;;;;8359182;28;20025;-53
2024/01/24 15:23:46;;;;;;;0.77;0.50;;;18.90;39.70;;;;;;8359347;28;20068;-54
2024/01/24 15:27:47;;;;;;;1.20;0.60;;;19.00;39.50;;;;;;8359047;28;20111;-54
2024/01/24 15:31:47;;;;;;;1.02;0.75;;;19.10;39.20;;;;;;8359100;28;20029;-54
2024/01/24 15:35:49;;;;;;;0.80;0.43;;;19.10;39.00;;;;;;8359090;28;20032;-54
2024/01/24 15:39:50;;;;;;;0.40;0.40;;;19.10;38.80;;;;;;8359115;28;20079;-54
2024/01/24 15:43:51;;;;;;;0.40;0.30;;;19.10;38.70;;;;;;8359200;28;20148;-51
2024/01/24 15:47:52;;;;;;;1.02;0.43;;;19.10;38.60;;;;;;8358843;28;20078;-51
2024/01/24 15:51:52;;;;;;;0.65;0.50;;;19.10;38.40;;;;;;8358996;28;20045;-52
2024/01/24 15:55:53;;;;;;;0.60;0.30;;;19.20;38.30;;;;;;8363050;28;20082;-51
2024/01/24 15:59:54;;;;;;;0.50;0.45;;;19.20;38.30;;;;;;8342641;28;20083;-51
2024/01/24 16:03:55;;;;;;;0.30;0.23;;;19.10;39.10;;;;;;8363093;28;20481;-52
2024/01/24 16:07:56;;;;;;;1.38;0.30;;;19.00;39.80;;;;;;8330040;28;20303;-51
2024/01/24 16:11:57;;;;;;;0.50;0.40;;;19.00;39.80;;;;;;8331551;28;20123;-54
2024/01/24 16:16:00;;;;;;;0.52;0.40;;;19.00;39.40;;;;;;8360249;28;20079;-53
2024/01/24 16:20:01;;;;;;;1.63;0.63;;;19.10;39.10;;;;;;8364180;28;20029;-49
2024/01/24 16:24:02;;;;;;;1.00;0.63;;;19.20;39.00;;;;;;8364126;28;20036;-52
2024/01/24 16:28:03;;;;;;;0.43;0.32;;;19.20;38.80;;;;;;8363964;28;20037;-52
2024/01/24 16:32:04;;;;;;;1.17;0.40;;;19.20;38.70;;;;;;8363766;28;20037;-52
2024/01/24 16:36:05;;;;;;;0.63;0.38;;;19.20;38.60;;;;;;8363664;28;20029;-53
2024/01/24 16:40:06;;;;;;;0.65;0.40;;;19.30;38.60;;;;;;8363513;28;20109;-52
2024/01/24 16:44:07;;;;;;;1.40;0.32;;;19.30;38.40;;;;;;8363296;28;20025;-49
2024/01/24 16:48:08;;;;;;;0.40;0.40;;;19.30;38.40;;;;;;8363433;28;20033;-52
2024/01/24 16:52:09;;;;;;;0.30;0.30;;;19.30;39.00;;;;;;8363180;28;20032;-49
2024/01/24 16:56:10;;;;;;;0.40;0.40;;;19.10;39.70;;;;;;8362883;28;20429;-50
2024/01/24 17:00:11;;;;;;;0.30;0.30;;;19.10;39.50;;;;;;8333026;28;20029;-48
2024/01/24 17:04:12;;;;;;;0.40;0.40;;;19.10;39.30;;;;;;8328770;28;20041;-48
2024/01/24 17:08:13;;;;;;;0.82;0.50;;;19.20;39.10;;;;;;8329685;28;20515;-48
2024/01/24 17:12:16;;;;;;;1.42;0.43;;;19.20;38.90;;;;;;8330051;28;20030;-51
2024/01/24 17:16:17;;;;;;;0.45;0.35;;;19.30;38.90;;;;;;8329461;28;20034;-50
2024/01/24 17:20:18;;;;;;;0.35;0.30;;;19.30;39.20;;;;;;8329482;28;20039;-49
2024/01/24 17:24:18;;;;;;;0.30;0.30;;;19.30;38.60;;;;;;8329183;28;20395;-48
2024/01/24 17:28:19;;;;;;;0.95;0.50;;;19.30;38.50;;;;;;8351329;28;20034;-48
2024/01/24 17:32:20;;;;;;;0.22;0.22;;;19.30;38.50;;;;;;8347754;28;20034;-48
2024/01/24 17:36:20;;;;;;;0.60;0.50;;;19.30;38.40;;;;;;8329073;28;20419;-49
2024/01/24 17:40:21;;;;;;;0.38;0.38;;;19.30;39.00;;;;;;8328461;28;20038;-52
2024/01/24 17:44:23;;;;;;;0.40;0.40;;;19.20;39.70;;;;;;8328714;28;20035;-49
2024/01/24 17:48:24;;;;;;;0.50;0.30;;;19.10;39.60;;;;;;8328496;28;20029;-49
2024/01/24 17:52:25;;;;;;;0.30;0.30;;;19.20;39.30;;;;;;8328711;28;20040;-49
2024/01/24 17:56:26;;;;;;;0.43;0.30;;;19.20;39.10;;;;;;8335676;28;20033;-51
2024/01/24 18:00:27;;;;;;;0.35;0.25;;;19.30;39.00;;;;;;8361032;28;20029;-49
2024/01/24 18:04:27;;;;;;;0.57;0.40;;;19.30;38.90;;;;;;8360892;28;20036;-52
2024/01/24 18:08:28;;;;;;;0.20;0.20;;;19.30;38.70;;;;;;8360917;28;20057;-54
2024/01/24 18:12:29;;;;;;;0.47;0.30;;;19.30;38.60;;;;;;8360504;28;20087;-53
2024/01/24 18:16:29;;;;;;;1.23;0.35;;;19.40;38.60;;;;;;8360448;28;20518;-51
2024/01/24 18:20:31;;;;;;;0.50;0.30;;;19.40;38.50;;;;;;8360697;28;20114;-54
2024/01/24 18:24:32;;;;;;;0.47;0.32;;;19.40;38.40;;;;;;8360416;28;20059;-50
2024/01/24 18:28:33;;;;;;;0.38;0.30;;;19.30;39.20;;;;;;8361115;28;20029;-52
2024/01/24 18:32:34;;;;;;;0.30;0.30;;;19.20;39.90;;;;;;8360188;28;20068;-49
2024/01/24 18:36:34;;;;;;;0.20;0.20;;;19.20;39.80;;;;;;8360312;28;20033;-55
2024/01/24 18:40:35;;;;;;;0.20;0.20;;;19.20;39.60;;;;;;8359873;28;20475;-51
2024/01/24 18:44:36;;;;;;;0.75;0.50;;;19.30;39.30;;;;;;8359946;28;20037;-56
2024/01/24 18:48:37;;;;;;;1.00;0.32;;;19.30;39.10;;;;;;8359930;28;20087;-54
2024/01/24 18:52:37;;;;;;;0.82;0.52;;;19.30;39.00;;;;;;8359598;28;20118;-54
2024/01/24 18:56:38;;;;;;;0.40;0.40;;;19.40;38.90;;;;;;8359768;28;20037;-54
2024/01/24 19:00:39;;;;;;;3.30;0.40;;;19.30;38.90;;;;;;8332394;28;20036;-53
2024/01/24 19:04:40;;;;;;;;;;;19.40;38.80;;;;;;8327129;28;20037;-48
2024/01/24 19:08:41;;;;;;;0.40;0.37;;;19.40;38.70;;;;;;8326200;28;19963;-54
2024/01/24 19:12:41;;;;;;;0.90;0.57;;;19.40;38.60;;;;;;8326415;28;20048;-51
2024/01/24 19:16:42;;;;;;;0.77;0.60;;;19.30;39.50;;;;;;8326533;28;20033;-50
2024/01/24 19:20:43;;;;;;;2.00;0.60;;;19.20;40.10;;;;;;8326367;28;20495;-49
2024/01/24 19:24:44;;;;;;;1.02;0.57;;;19.20;39.90;;;;;;8326836;28;20280;-53
2024/01/24 19:28:46;;;;;;;1.75;0.80;;;19.30;39.60;;;;;;8354932;28;20083;-53
2024/01/24 19:32:46;;;;;;;2.03;0.40;;;19.30;39.40;;;;;;8365612;28;20029;-52
2024/01/24 19:36:47;;;;;;;1.13;0.63;;;19.30;39.10;;;;;;8365817;28;20025;-53
2024/01/24 19:40:49;;;;;;;1.27;0.60;;;19.40;39.00;;;;;;8365321;28;20033;-49
2024/01/24 19:44:50;;;;;;;0.60;0.45;;;19.40;38.90;;;;;;8365157;28;20037;-51
2024/01/24 19:48:51;;;;;;;;;;;19.40;38.80;;;;;;8365746;28;20123;-48
2024/01/24 19:52:54;;;;;;;0.70;0.40;;;19.40;38.70;;;;;;8365169;28;19913;-54
2024/01/24 19:56:54;;;;;;;1.13;0.70;;;19.40;38.60;;;;;;8364701;28;20577;-52
2024/01/24 20:00:55;;;;;;;1.35;0.50;;;19.50;38.60;;;;;;8342832;28;20437;-49
2024/01/24 20:04:56;;;;;;;2.38;0.50;;;19.40;39.40;;;;;;8330740;28;20045;-49
2024/01/24 20:08:57;;;;;;;1.08;0.40;;;19.20;40.00;;;;;;8331400;28;20054;-50
2024/01/24 20:12:58;;;;;;;0.50;0.40;;;19.30;39.70;;;;;;8331297;28;20471;-49
2024/01/24 20:16:58;;;;;;;0.50;0.50;;;19.30;39.50;;;;;;8331554;28;20028;-49
2024/01/24 20:20:59;;;;;;;3.30;0.50;;;19.30;39.30;;;;;;8331303;28;20034;-50
2024/01/24 20:25:00;;;;;;;1.25;0.70;;;19.40;39.10;;;;;;8331050;28;20325;-48
2024/01/24 20:29:01;;;;;;;0.90;0.68;;;19.50;39.00;;;;;;8358779;28;20423;-49
2024/01/24 20:33:02;;;;;;;2.03;0.98;;;19.40;38.90;;;;;;8363767;28;20498;-50
2024/01/24 20:37:03;;;;;;;2.38;1.30;;;19.50;39.10;;;;;;8363567;28;20036;-51
2024/01/24 20:41:07;;;;;;;5.10;1.80;;;19.60;40.00;;;;;;8363295;28;20045;-50
2024/01/24 20:45:08;;;;;;;3.28;1.52;;;19.60;39.60;;;;;;8363362;28;20036;-49
2024/01/24 20:49:09;;;;;;;3.15;1.10;;;19.60;39.60;;;;;;8363438;28;20035;-48
2024/01/24 20:53:10;;;;;;;2.40;0.93;;;19.40;40.80;;;;;;8363118;28;20025;-49
2024/01/24 20:57:12;;;;;;;4.60;1.05;;;19.30;41.20;;;;;;8363036;28;20052;-47
2024/01/24 21:01:12;;;;;;;2.95;0.80;;;19.30;40.80;;;;;;8363181;28;20118;-50